Time;durP1;ratioP1;P1;durP2;ratioP2;P2;SDS_P1;SDS_P2;PMS_P1;PMS_P2;Temp;Humidity;BMP_temperature;BMP_pressure;BME280_temperature;BME280_humidity;BME280_pressure;Samples;Min_cycle;Max_cycle;Signal;HPM_P1;HPM_P2
2021/12/12 00:00:30;;;;;;;15.15;10.68;;;5.60;62.20;;;;;;5031887;28;20033;-70
2021/12/12 00:03:03;;;;;;;16.45;11.35;;;5.60;62.10;;;;;;5014915;28;20033;-66
2021/12/12 00:05:41;;;;;;;20.15;12.35;;;5.60;62.70;;;;;;5014326;28;20029;-65
2021/12/12 00:08:07;;;;;;;20.05;12.55;;;5.70;62.70;;;;;;5032831;28;20022;-69
2021/12/12 00:10:36;;;;;;;20.20;12.55;;;5.70;62.80;;;;;;5031562;28;20048;-70
2021/12/12 00:13:08;;;;;;;18.48;12.80;;;5.70;62.90;;;;;;5031703;28;20047;-67
2021/12/12 00:15:34;;;;;;;20.80;13.07;;;5.60;62.80;;;;;;5034114;28;20032;-68
2021/12/12 00:18:00;;;;;;;20.88;12.90;;;5.50;63.30;;;;;;5036227;28;20029;-67
2021/12/12 00:20:28;;;;;;;19.60;12.32;;;5.40;63.50;;;;;;5035779;28;20124;-65
2021/12/12 00:22:58;;;;;;;19.52;12.90;;;5.50;63.70;;;;;;5036192;28;20030;-67
2021/12/12 00:25:45;;;;;;;20.35;12.82;;;5.50;63.80;;;;;;5035902;28;20026;-69
2021/12/12 00:28:15;;;;;;;18.05;11.85;;;5.40;63.60;;;;;;5035053;28;20034;-65
2021/12/12 00:30:46;;;;;;;18.67;12.57;;;5.40;63.30;;;;;;5036505;28;20030;-68
2021/12/12 00:33:13;;;;;;;19.23;12.13;;;5.50;64.10;;;;;;5036292;28;20065;-65
2021/12/12 00:35:40;;;;;;;18.40;11.00;;;5.50;63.30;;;;;;5018017;28;20036;-64
2021/12/12 00:38:26;;;;;;;20.13;11.70;;;5.50;62.20;;;;;;5036144;28;20040;-69
2021/12/12 00:40:55;;;;;;;16.63;10.90;;;5.40;62.90;;;;;;5018482;28;20030;-66
2021/12/12 00:43:27;;;;;;;19.98;11.45;;;5.50;62.30;;;;;;5017752;28;20128;-65
2021/12/12 00:45:57;;;;;;;18.73;11.50;;;5.50;62.20;;;;;;5035483;28;20079;-71
2021/12/12 00:48:23;;;;;;;17.70;11.63;;;5.40;62.20;;;;;;5034686;28;20099;-66
2021/12/12 00:50:50;;;;;;;20.38;13.48;;;5.40;62.30;;;;;;5017671;28;20408;-62
2021/12/12 00:53:20;;;;;;;20.58;12.90;;;5.40;62.40;;;;;;5034750;28;20484;-65
2021/12/12 00:55:47;;;;;;;22.25;14.15;;;5.40;63.00;;;;;;5035292;28;20025;-69
2021/12/12 00:58:15;;;;;;;21.83;13.60;;;5.40;63.20;;;;;;5035233;28;20037;-66
2021/12/12 01:00:49;;;;;;;20.77;13.63;;;5.50;63.40;;;;;;5034778;28;20032;-65
2021/12/12 01:03:16;;;;;;;19.25;12.73;;;5.60;63.30;;;;;;5017392;28;20075;-64
2021/12/12 01:05:46;;;;;;;21.25;14.18;;;5.60;63.00;;;;;;5034556;28;20029;-61
2021/12/12 01:08:14;;;;;;;19.25;12.50;;;5.60;63.10;;;;;;5035072;28;20022;-63
2021/12/12 01:11:03;;;;;;;18.45;12.23;;;5.60;62.80;;;;;;5034677;28;20033;-68
2021/12/12 01:13:30;;;;;;;18.23;12.38;;;5.60;62.60;;;;;;5001942;28;20136;-68
2021/12/12 01:16:05;;;;;;;22.98;12.60;;;5.50;62.70;;;;;;5035152;28;20048;-68
2021/12/12 01:18:38;;;;;;;20.73;13.52;;;5.50;62.80;;;;;;5034721;28;20026;-65
2021/12/12 01:21:14;;;;;;;19.80;12.17;;;5.50;63.30;;;;;;5017112;28;20033;-65
2021/12/12 01:23:47;;;;;;;18.40;11.50;;;5.60;63.10;;;;;;5034830;28;20256;-69
2021/12/12 01:26:13;;;;;;;21.15;12.40;;;5.50;63.00;;;;;;5035007;28;20029;-68
2021/12/12 01:28:45;;;;;;;18.05;11.50;;;5.50;62.80;;;;;;5034564;28;20037;-69
2021/12/12 01:31:25;;;;;;;18.42;11.02;;;5.50;63.10;;;;;;5017030;28;20034;-67
2021/12/12 01:33:59;;;;;;;17.10;11.38;;;5.40;63.50;;;;;;5034611;28;20029;-66
2021/12/12 01:36:45;;;;;;;21.35;12.90;;;5.40;63.70;;;;;;5034115;28;20112;-63
2021/12/12 01:39:12;;;;;;;17.83;12.05;;;5.40;63.80;;;;;;5032551;28;20065;-65
2021/12/12 01:42:01;;;;;;;20.85;12.05;;;5.50;63.80;;;;;;5033510;28;20034;-68
2021/12/12 01:44:50;;;;;;;20.08;12.85;;;5.50;63.70;;;;;;5033111;28;20104;-67
2021/12/12 01:47:21;;;;;;;19.38;12.70;;;5.40;64.40;;;;;;5034470;28;20104;-71
2021/12/12 01:49:51;;;;;;;18.80;11.93;;;5.40;64.40;;;;;;5016088;28;20025;-69
2021/12/12 01:52:20;;;;;;;17.67;11.60;;;5.40;64.60;;;;;;5016528;28;20037;-64
2021/12/12 01:54:50;;;;;;;17.45;11.23;;;5.50;64.60;;;;;;5033989;28;20030;-67
2021/12/12 01:57:25;;;;;;;15.90;10.73;;;5.50;64.40;;;;;;5033950;28;20026;-67
2021/12/12 01:59:53;;;;;;;17.38;11.68;;;5.40;63.80;;;;;;5034095;28;20472;-66
2021/12/12 02:02:32;;;;;;;15.90;10.32;;;5.50;64.40;;;;;;5033196;28;20539;-68
2021/12/12 02:05:04;;;;;;;15.90;11.00;;;5.60;63.70;;;;;;5034087;28;20061;-64
2021/12/12 02:07:35;;;;;;;14.05;9.68;;;5.70;63.90;;;;;;5032729;28;20537;-64
2021/12/12 02:10:07;;;;;;;16.83;10.65;;;5.60;63.10;;;;;;5033560;28;20033;-65
2021/12/12 02:12:33;;;;;;;16.23;10.27;;;5.60;62.50;;;;;;5015351;28;20437;-75
2021/12/12 02:14:59;;;;;;;15.18;10.07;;;5.60;62.90;;;;;;5033386;28;20026;-66
2021/12/12 02:17:34;;;;;;;16.63;9.77;;;5.60;62.50;;;;;;5014272;28;20029;-65
2021/12/12 02:20:17;;;;;;;13.95;8.57;;;5.50;62.40;;;;;;5033747;28;20105;-68
2021/12/12 02:23:04;;;;;;;13.30;7.68;;;5.60;62.30;;;;;;5016017;28;20080;-65
2021/12/12 02:36:33;;;;;;;10.45;6.80;;;5.30;61.00;;;;;;5032554;28;20044;-72
2021/12/12 02:39:01;;;;;;;10.43;6.75;;;5.30;61.60;;;;;;5032609;28;20018;-69
2021/12/12 02:41:29;;;;;;;12.00;7.20;;;5.30;60.50;;;;;;5031930;28;20033;-71
2021/12/12 02:44:00;;;;;;;9.23;6.22;;;5.30;60.70;;;;;;5015351;28;20029;-71
2021/12/12 02:46:33;;;;;;;9.25;6.88;;;5.40;60.00;;;;;;5014862;28;20025;-70
2021/12/12 02:49:07;;;;;;;11.98;7.95;;;5.20;60.40;;;;;;5015609;28;20030;-72
2021/12/12 02:51:40;;;;;;;10.68;6.10;;;5.30;60.60;;;;;;5032680;28;20033;-64
2021/12/12 02:54:08;;;;;;;9.70;5.63;;;5.30;59.60;;;;;;5015309;28;20026;-69
2021/12/12 02:56:38;;;;;;;9.10;6.07;;;5.20;59.00;;;;;;5014260;28;20026;-66
2021/12/12 02:59:08;;;;;;;8.63;5.95;;;5.20;59.30;;;;;;5015465;28;20152;-74
2021/12/12 03:01:44;;;;;;;10.18;6.22;;;5.20;59.40;;;;;;5014872;28;20374;-69
2021/12/12 03:04:11;;;;;;;12.13;5.85;;;5.20;58.80;;;;;;5033169;28;20057;-69
2021/12/12 03:06:40;;;;;;;9.07;6.03;;;5.30;59.20;;;;;;5032516;28;20103;-64
2021/12/12 03:09:13;;;;;;;8.05;5.53;;;5.30;59.30;;;;;;4998724;28;20354;-68
2021/12/12 03:11:40;;;;;;;9.63;5.72;;;5.30;58.90;;;;;;5014656;28;20079;-74
2021/12/12 03:14:07;;;;;;;7.78;5.07;;;5.30;58.90;;;;;;5031353;28;20041;-62
2021/12/12 03:16:34;;;;;;;10.32;5.57;;;5.30;59.00;;;;;;5013978;28;20037;-71
2021/12/12 03:19:00;;;;;;;8.55;5.78;;;5.30;59.10;;;;;;5032423;28;20057;-68
2021/12/12 03:21:31;;;;;;;10.75;6.65;;;5.40;59.30;;;;;;5014797;28;20377;-66
2021/12/12 03:24:01;;;;;;;9.00;6.05;;;5.50;59.50;;;;;;5033087;28;20025;-66
2021/12/12 03:26:28;;;;;;;8.60;5.90;;;5.50;59.40;;;;;;5014915;28;20499;-63
2021/12/12 03:28:56;;;;;;;11.25;6.35;;;5.50;58.80;;;;;;5032287;28;20018;-68
2021/12/12 03:31:30;;;;;;;8.27;5.70;;;5.50;59.10;;;;;;5032248;28;20033;-67
2021/12/12 03:33:55;;;;;;;;;;;5.60;59.20;;;;;;5032992;28;20029;-66
2021/12/12 03:36:23;;;;;;;9.85;6.43;;;5.50;58.70;;;;;;5032134;28;20289;-70
2021/12/12 03:38:56;;;;;;;8.98;6.10;;;5.50;59.30;;;;;;5032785;28;20032;-70
2021/12/12 03:41:27;;;;;;;8.97;6.30;;;5.30;59.20;;;;;;5032344;28;20534;-67
2021/12/12 03:43:57;;;;;;;11.05;6.10;;;5.40;59.70;;;;;;5032916;28;20065;-64
2021/12/12 03:46:24;;;;;;;9.23;6.20;;;5.40;59.80;;;;;;5014166;28;20096;-65
2021/12/12 03:48:50;;;;;;;8.65;5.78;;;5.40;59.80;;;;;;5014968;28;20026;-70
2021/12/12 03:51:20;;;;;;;9.30;6.18;;;5.50;59.60;;;;;;5032492;28;20057;-72
2021/12/12 03:53:46;;;;;;;8.18;6.32;;;5.40;59.60;;;;;;5032588;28;20112;-71
2021/12/12 03:56:13;;;;;;;9.95;5.95;;;5.30;59.50;;;;;;5032710;28;20394;-75
2021/12/12 03:58:41;;;;;;;7.72;5.45;;;5.30;60.00;;;;;;5032065;28;20034;-71
2021/12/12 04:01:12;;;;;;;9.95;6.10;;;5.30;60.10;;;;;;5014585;28;20363;-64
2021/12/12 04:03:40;;;;;;;8.90;5.97;;;5.30;60.00;;;;;;5014355;28;20032;-69
2021/12/12 04:06:09;;;;;;;10.50;6.40;;;5.30;60.30;;;;;;5032385;28;20030;-66
2021/12/12 04:08:41;;;;;;;11.05;6.72;;;5.30;60.30;;;;;;5014167;28;20029;-70
2021/12/12 04:11:19;;;;;;;10.15;5.90;;;5.40;60.20;;;;;;5032795;28;20086;-67
2021/12/12 04:13:48;;;;;;;9.40;6.10;;;5.40;60.30;;;;;;5014020;28;20049;-62
2021/12/12 04:16:15;;;;;;;10.00;6.65;;;5.50;60.20;;;;;;5032129;28;20052;-65
2021/12/12 04:18:41;;;;;;;10.45;5.80;;;5.50;60.00;;;;;;5031841;28;20466;-71
2021/12/12 04:21:07;;;;;;;10.63;6.65;;;5.50;59.40;;;;;;5031915;28;20492;-68
2021/12/12 04:23:33;;;;;;;9.15;5.65;;;5.40;59.70;;;;;;5031754;28;20065;-64
2021/12/12 04:26:26;;;;;;;10.15;6.07;;;5.40;59.90;;;;;;5031966;28;20041;-62
2021/12/12 04:29:11;;;;;;;9.88;6.32;;;5.50;59.90;;;;;;5014542;28;20028;-70
2021/12/12 04:31:41;;;;;;;8.55;5.90;;;5.50;60.20;;;;;;5031535;28;20032;-67
2021/12/12 04:34:09;;;;;;;7.13;5.18;;;5.60;59.90;;;;;;5032517;28;20025;-63
2021/12/12 04:36:40;;;;;;;8.25;5.75;;;5.50;59.40;;;;;;5013470;28;20117;-65
2021/12/12 04:39:21;;;;;;;8.50;5.85;;;5.50;59.60;;;;;;5032113;28;20470;-66
2021/12/12 04:41:50;;;;;;;12.60;5.80;;;5.40;59.90;;;;;;5013936;28;20037;-71
2021/12/12 04:44:21;;;;;;;9.80;6.05;;;5.40;60.00;;;;;;4998205;28;20030;-63
2021/12/12 04:50:24;;;;;;;8.23;5.35;;;5.30;59.90;;;;;;5001615;28;20040;-62
2021/12/12 04:53:14;;;;;;;9.98;6.10;;;5.30;60.60;;;;;;5032006;28;20021;-64
2021/12/12 04:55:58;;;;;;;9.63;6.22;;;5.30;60.40;;;;;;5031680;28;20018;-65
2021/12/12 04:58:37;;;;;;;10.68;6.13;;;5.30;60.40;;;;;;5032128;28;20095;-68
2021/12/12 05:01:20;;;;;;;9.32;5.53;;;5.30;60.40;;;;;;4999171;28;20411;-66
2021/12/12 05:03:59;;;;;;;8.48;5.93;;;5.20;60.70;;;;;;5034971;28;20034;-61
2021/12/12 05:06:39;;;;;;;12.55;6.90;;;5.10;60.80;;;;;;5035437;28;20084;-61
2021/12/12 05:09:07;;;;;;;7.85;5.55;;;5.00;61.60;;;;;;5035310;28;20024;-63
2021/12/12 05:11:42;;;;;;;8.73;6.03;;;5.00;61.10;;;;;;5034655;28;20473;-68
2021/12/12 05:14:13;;;;;;;10.43;6.75;;;5.00;61.40;;;;;;5035677;28;20045;-63
2021/12/12 05:16:43;;;;;;;14.02;7.13;;;5.00;61.60;;;;;;5035047;28;20117;-60
2021/12/12 05:19:13;;;;;;;9.85;6.13;;;5.00;61.60;;;;;;5035189;28;20557;-66
2021/12/12 05:21:45;;;;;;;11.15;6.20;;;4.80;61.70;;;;;;5034829;28;20462;-63
2021/12/12 05:24:13;;;;;;;11.63;6.45;;;4.80;62.20;;;;;;5035206;28;20474;-62
2021/12/12 05:26:51;;;;;;;11.50;6.78;;;4.80;62.40;;;;;;5034112;28;20075;-63
2021/12/12 05:29:25;;;;;;;12.68;7.38;;;4.70;62.80;;;;;;5017608;28;20030;-61
2021/12/12 05:31:54;;;;;;;14.00;7.90;;;4.70;62.90;;;;;;5016880;28;20057;-62
2021/12/12 05:34:26;;;;;;;12.32;7.45;;;4.60;63.40;;;;;;5034792;28;20072;-62
2021/12/12 05:36:53;;;;;;;10.68;7.00;;;4.50;63.80;;;;;;5034324;28;20029;-61
2021/12/12 05:39:20;;;;;;;11.23;7.15;;;4.60;64.00;;;;;;5035049;28;20026;-65
2021/12/12 05:41:48;;;;;;;11.30;7.38;;;4.60;64.00;;;;;;5016393;28;20030;-70
2021/12/12 05:44:15;;;;;;;12.50;7.07;;;4.60;63.70;;;;;;5034694;28;20036;-68
2021/12/12 05:46:41;;;;;;;10.25;6.78;;;4.60;63.60;;;;;;5034155;28;20021;-67
2021/12/12 05:49:07;;;;;;;12.43;7.43;;;4.60;63.70;;;;;;5034616;28;20381;-67
2021/12/12 05:51:34;;;;;;;14.77;7.28;;;4.60;63.70;;;;;;5016547;28;20029;-74
2021/12/12 05:54:01;;;;;;;9.52;6.80;;;4.60;63.70;;;;;;5034831;28;20037;-65
2021/12/12 05:56:30;;;;;;;11.48;6.47;;;4.50;63.40;;;;;;5034806;28;20025;-68
2021/12/12 05:58:58;;;;;;;12.60;7.03;;;4.50;63.50;;;;;;5034177;28;20029;-71
2021/12/12 06:01:25;;;;;;;10.10;6.32;;;4.40;63.50;;;;;;5016819;28;20083;-63
2021/12/12 06:03:52;;;;;;;13.75;7.28;;;4.40;63.90;;;;;;5015854;28;20227;-66
2021/12/12 06:06:23;;;;;;;10.30;5.78;;;4.50;63.90;;;;;;5034643;28;20033;-66
2021/12/12 06:08:50;;;;;;;9.88;6.47;;;4.50;63.60;;;;;;5033808;28;20485;-67
2021/12/12 06:11:20;;;;;;;13.05;6.57;;;4.50;63.80;;;;;;5016861;28;20033;-73
2021/12/12 06:13:46;;;;;;;10.30;6.68;;;4.50;63.70;;;;;;5014584;28;20493;-63
2021/12/12 06:16:19;;;;;;;11.98;6.93;;;4.60;63.60;;;;;;5034219;28;20025;-66
2021/12/12 06:19:08;;;;;;;12.80;6.97;;;4.50;63.80;;;;;;5033948;28;20026;-67
2021/12/12 06:21:35;;;;;;;12.15;7.18;;;4.40;64.10;;;;;;5033436;28;20477;-72
2021/12/12 06:24:01;;;;;;;9.48;6.65;;;4.50;64.10;;;;;;5034358;28;20056;-71
2021/12/12 06:26:28;;;;;;;8.48;6.47;;;4.40;64.30;;;;;;5034016;28;20385;-75
2021/12/12 06:28:53;;;;;;;11.48;6.50;;;4.40;64.00;;;;;;5015842;28;20469;-70
2021/12/12 06:31:20;;;;;;;9.30;7.00;;;4.40;64.00;;;;;;5016505;28;20172;-66
2021/12/12 06:33:46;;;;;;;11.55;6.38;;;4.50;64.00;;;;;;5015843;28;20476;-63
2021/12/12 06:36:15;;;;;;;9.75;6.65;;;4.60;63.80;;;;;;5015902;28;20066;-65
2021/12/12 06:38:44;;;;;;;11.25;6.57;;;4.50;63.50;;;;;;5032709;28;20017;-62
2021/12/12 06:41:11;;;;;;;10.70;6.65;;;4.40;63.60;;;;;;5033376;28;20083;-64
2021/12/12 06:43:37;;;;;;;10.65;6.90;;;4.50;63.80;;;;;;5032587;28;20060;-64
2021/12/12 06:46:06;;;;;;;9.43;6.22;;;4.50;63.60;;;;;;5033258;28;20060;-74
2021/12/12 06:48:32;;;;;;;11.90;6.80;;;4.50;63.30;;;;;;5015503;28;20458;-64
2021/12/12 06:51:01;;;;;;;11.50;7.00;;;4.60;63.30;;;;;;5032681;28;20373;-74
2021/12/12 06:53:29;;;;;;;9.25;5.93;;;4.70;62.70;;;;;;5015166;28;20462;-66
2021/12/12 06:55:56;;;;;;;10.10;5.93;;;4.70;62.70;;;;;;5032589;28;20029;-66
2021/12/12 06:58:22;;;;;;;11.02;6.07;;;4.70;62.60;;;;;;5015279;28;20124;-66
2021/12/12 07:00:53;;;;;;;9.43;6.05;;;4.70;61.80;;;;;;5032710;28;20053;-64
2021/12/12 07:03:20;;;;;;;10.55;6.55;;;4.80;62.20;;;;;;5015038;28;20469;-64
2021/12/12 07:05:47;;;;;;;10.98;6.40;;;4.90;61.90;;;;;;5032118;28;20456;-64
2021/12/12 07:08:16;;;;;;;10.05;6.78;;;4.90;61.60;;;;;;5032602;28;20057;-66
2021/12/12 07:10:43;;;;;;;10.55;6.57;;;4.90;61.80;;;;;;5032168;28;20021;-65
2021/12/12 07:13:09;;;;;;;10.57;6.18;;;5.00;61.50;;;;;;5032838;28;20057;-66
2021/12/12 07:15:46;;;;;;;10.65;6.70;;;5.00;61.70;;;;;;5014180;28;20068;-67
2021/12/12 07:18:14;;;;;;;9.18;6.47;;;5.20;61.90;;;;;;5032815;28;20022;-66
2021/12/12 07:20:40;;;;;;;11.25;6.53;;;5.30;61.20;;;;;;5031872;28;20032;-73
2021/12/12 07:23:08;;;;;;;11.82;7.68;;;5.30;61.10;;;;;;5014734;28;20037;-65
2021/12/12 07:25:37;;;;;;;11.27;7.03;;;5.30;61.20;;;;;;5014148;28;20049;-63
2021/12/12 07:28:04;;;;;;;10.15;7.05;;;5.30;61.40;;;;;;5032344;28;20029;-70
2021/12/12 07:30:30;;;;;;;12.05;7.63;;;5.40;61.40;;;;;;5014883;28;20108;-69
2021/12/12 07:32:56;;;;;;;12.65;7.70;;;5.50;61.40;;;;;;5014774;28;20033;-65
2021/12/12 07:35:23;;;;;;;13.88;7.47;;;5.60;61.30;;;;;;5032160;28;20030;-64
2021/12/12 07:37:49;;;;;;;12.43;8.40;;;5.70;61.30;;;;;;5014464;28;20187;-67
2021/12/12 07:40:16;;;;;;;14.02;8.93;;;5.70;61.20;;;;;;5032859;28;20055;-67
2021/12/12 07:42:45;;;;;;;13.18;8.68;;;5.70;61.40;;;;;;5032233;28;20041;-64
2021/12/12 07:45:11;;;;;;;17.88;8.38;;;5.80;61.70;;;;;;5032831;28;20021;-71
2021/12/12 07:47:37;;;;;;;15.55;8.48;;;5.90;61.70;;;;;;5032079;28;20032;-64
2021/12/12 07:50:07;;;;;;;13.95;8.63;;;5.90;61.60;;;;;;5014367;28;20029;-67
2021/12/12 07:52:33;;;;;;;14.30;7.97;;;5.90;61.60;;;;;;5014235;28;20037;-62
2021/12/12 07:55:01;;;;;;;11.32;8.10;;;6.00;61.70;;;;;;5013704;28;20116;-65
2021/12/12 07:57:28;;;;;;;12.55;8.43;;;6.10;61.50;;;;;;5014170;28;20034;-64
2021/12/12 07:59:55;;;;;;;12.45;8.73;;;6.20;61.50;;;;;;5031086;28;20028;-63
2021/12/12 08:02:23;;;;;;;10.88;8.48;;;6.20;61.30;;;;;;5032442;28;20068;-63
2021/12/12 08:04:50;;;;;;;11.90;7.85;;;6.20;61.30;;;;;;5014210;28;20036;-63
2021/12/12 08:07:19;;;;;;;12.80;7.57;;;6.20;61.50;;;;;;5014756;28;20018;-68
2021/12/12 08:09:47;;;;;;;15.77;7.75;;;6.20;61.30;;;;;;5031311;28;20557;-63
2021/12/12 08:12:24;;;;;;;11.43;8.02;;;6.10;61.60;;;;;;5014130;28;20030;-66
2021/12/12 08:14:50;;;;;;;12.07;8.05;;;6.00;61.90;;;;;;5031823;28;20108;-65
2021/12/12 08:17:20;;;;;;;11.00;7.70;;;6.10;62.00;;;;;;5014653;28;20128;-73
2021/12/12 08:19:47;;;;;;;11.07;8.13;;;6.20;61.80;;;;;;5014036;28;20084;-67
2021/12/12 08:22:14;;;;;;;13.82;8.00;;;6.20;61.70;;;;;;5032028;28;20486;-73
2021/12/12 08:24:40;;;;;;;10.60;7.53;;;6.20;61.60;;;;;;5031844;28;20037;-68
2021/12/12 08:27:08;;;;;;;12.80;7.05;;;6.10;61.80;;;;;;5014563;28;20030;-66
2021/12/12 08:29:36;;;;;;;11.13;7.50;;;6.10;61.70;;;;;;5032002;28;20028;-66
2021/12/12 08:32:10;;;;;;;13.95;7.10;;;6.10;61.70;;;;;;5031859;28;20034;-78
2021/12/12 08:34:36;;;;;;;10.55;7.00;;;6.00;61.70;;;;;;5014401;28;20033;-64
2021/12/12 08:37:03;;;;;;;11.77;7.72;;;5.90;62.00;;;;;;5034585;28;20036;-68
2021/12/12 08:39:30;;;;;;;11.05;6.85;;;6.00;62.10;;;;;;5018298;28;20041;-65
2021/12/12 08:41:58;;;;;;;19.08;7.60;;;5.90;61.70;;;;;;5035341;28;20034;-71
2021/12/12 08:44:26;;;;;;;16.52;7.45;;;6.00;61.60;;;;;;5035838;28;20029;-67
2021/12/12 08:46:54;;;;;;;11.13;7.45;;;6.00;61.70;;;;;;5001741;28;20026;-68
2021/12/12 08:49:24;;;;;;;11.35;7.20;;;6.00;61.30;;;;;;5018613;28;20063;-67
2021/12/12 08:52:00;;;;;;;10.80;7.45;;;6.10;61.50;;;;;;5017633;28;20026;-70
2021/12/12 08:54:28;;;;;;;12.48;7.55;;;6.20;61.20;;;;;;5035761;28;20022;-71
2021/12/12 08:57:45;;;;;;;9.82;7.30;;;6.10;60.60;;;;;;5035386;28;20079;-75
2021/12/12 09:00:16;;;;;;;11.48;6.93;;;6.10;60.60;;;;;;5035844;28;20073;-65
2021/12/12 09:02:43;;;;;;;13.45;7.03;;;6.30;60.20;;;;;;5034842;28;20040;-67
2021/12/12 09:05:16;;;;;;;11.98;7.68;;;6.40;59.70;;;;;;5017913;28;20116;-66
2021/12/12 09:07:47;;;;;;;12.98;7.28;;;6.40;59.60;;;;;;5035557;28;20057;-65
2021/12/12 09:10:30;;;;;;;32.90;8.05;;;6.50;59.70;;;;;;5035554;28;20030;-63
2021/12/12 09:13:04;;;;;;;;;;;6.40;59.50;;;;;;5013968;28;20058;-69
2021/12/12 09:15:38;;;;;;;10.65;7.40;;;6.50;59.70;;;;;;5015589;28;19905;-73
2021/12/12 09:18:28;;;;;;;12.23;7.82;;;6.50;59.60;;;;;;5013809;28;20088;-65
2021/12/12 09:21:25;;;;;;;10.70;7.60;;;6.70;59.30;;;;;;5013410;28;20033;-64
2021/12/12 09:24:11;;;;;;;11.05;6.95;;;6.80;58.90;;;;;;5014401;28;20536;-61
2021/12/12 09:26:43;;;;;;;12.15;7.00;;;6.90;58.50;;;;;;5015426;28;20109;-64
2021/12/12 09:29:10;;;;;;;10.57;7.93;;;7.00;57.80;;;;;;5015454;28;20112;-67
2021/12/12 09:31:44;;;;;;;10.80;7.88;;;7.00;57.80;;;;;;5015178;28;20037;-66
2021/12/12 09:34:30;;;;;;;10.60;6.88;;;7.20;57.50;;;;;;5014937;28;20029;-61
2021/12/12 09:37:07;;;;;;;13.82;8.00;;;7.20;57.50;;;;;;4998176;28;20033;-66
2021/12/12 09:39:41;;;;;;;14.52;7.68;;;7.10;57.10;;;;;;5014274;28;20095;-62
2021/12/12 09:42:49;;;;;;;12.38;7.78;;;7.20;58.30;;;;;;5013380;28;20040;-65
2021/12/12 09:45:59;;;;;;;14.70;8.32;;;7.10;57.80;;;;;;4982076;28;20107;-61
2021/12/12 09:51:32;;;;;;;;;;;7.00;58.60;;;;;;4993390;28;20093;-77
2021/12/12 09:54:07;;;;;;;14.32;8.80;;;7.00;58.80;;;;;;5004972;28;19949;-69
2021/12/12 09:56:48;;;;;;;12.95;8.60;;;7.00;59.00;;;;;;5015143;28;20056;-64
2021/12/12 09:59:31;;;;;;;14.15;9.23;;;6.90;59.20;;;;;;5013762;28;20036;-72
2021/12/12 10:02:04;;;;;;;18.57;10.50;;;6.70;59.70;;;;;;5014691;28;20040;-67
2021/12/12 10:05:18;;;;;;;13.43;9.48;;;6.60;60.60;;;;;;5013955;28;20038;-68
2021/12/12 10:07:53;;;;;;;15.68;9.68;;;6.60;61.20;;;;;;5012608;28;20501;-67
2021/12/12 10:10:35;;;;;;;16.63;10.13;;;6.50;61.30;;;;;;5015169;28;20026;-64
2021/12/12 10:13:10;;;;;;;14.70;10.18;;;6.60;61.40;;;;;;5012744;28;20063;-64
2021/12/12 10:15:44;;;;;;;15.77;10.70;;;6.50;61.50;;;;;;5013606;28;20060;-72
2021/12/12 10:18:14;;;;;;;;;;;6.40;62.10;;;;;;5014772;28;20093;-65
2021/12/12 10:20:48;;;;;;;17.40;10.15;;;6.30;62.30;;;;;;5013547;28;19905;-65
2021/12/12 10:23:17;;;;;;;18.77;11.27;;;6.40;62.40;;;;;;5014967;28;20033;-66
2021/12/12 10:25:45;;;;;;;15.93;10.20;;;6.40;62.40;;;;;;5014647;28;20030;-70
2021/12/12 10:28:32;;;;;;;18.48;10.88;;;6.40;62.60;;;;;;5012685;28;20036;-68
2021/12/12 10:31:07;;;;;;;16.30;10.63;;;6.50;63.10;;;;;;5014303;28;20366;-67
2021/12/12 10:33:56;;;;;;;15.75;10.13;;;6.80;62.10;;;;;;5014413;28;20034;-69
2021/12/12 10:36:29;;;;;;;16.33;10.02;;;6.90;62.10;;;;;;5014069;28;20037;-74
2021/12/12 10:39:11;;;;;;;16.80;10.05;;;6.90;61.70;;;;;;5013982;28;20393;-68
2021/12/12 10:41:42;;;;;;;15.75;9.98;;;7.00;61.50;;;;;;5014102;28;20034;-68
2021/12/12 10:44:13;;;;;;;13.93;9.27;;;7.10;61.50;;;;;;5012570;28;20069;-70
2021/12/12 10:46:54;;;;;;;15.60;9.60;;;7.30;61.30;;;;;;5014714;28;20021;-67
2021/12/12 10:49:38;;;;;;;13.77;9.95;;;7.30;60.70;;;;;;5014230;28;20490;-72
2021/12/12 10:52:30;;;;;;;15.63;10.02;;;7.30;60.80;;;;;;5013627;28;20072;-72
2021/12/12 10:55:00;;;;;;;15.05;9.98;;;7.30;60.50;;;;;;4993229;28;20030;-66
2021/12/12 10:57:34;;;;;;;15.00;9.95;;;7.40;60.70;;;;;;5012049;28;20026;-67
2021/12/12 11:00:06;;;;;;;14.35;9.93;;;7.50;60.70;;;;;;5011813;28;20029;-69
2021/12/12 11:02:36;;;;;;;15.02;10.07;;;7.60;60.60;;;;;;5012920;28;20087;-66
2021/12/12 11:05:13;;;;;;;16.85;10.13;;;7.60;59.90;;;;;;5011133;28;20119;-66
2021/12/12 11:07:58;;;;;;;14.30;9.75;;;7.50;60.50;;;;;;5012044;28;20026;-63
2021/12/12 11:10:35;;;;;;;18.65;10.27;;;8.00;60.70;;;;;;5011785;28;20026;-64
2021/12/12 11:13:16;;;;;;;12.93;9.43;;;8.50;58.80;;;;;;5019542;28;20049;-65
2021/12/12 11:15:51;;;;;;;16.58;11.85;;;8.40;58.00;;;;;;5012402;28;20543;-65
2021/12/12 11:18:24;;;;;;;15.88;10.48;;;8.20;58.30;;;;;;5031568;28;20025;-63
2021/12/12 11:21:02;;;;;;;13.48;10.35;;;8.00;59.20;;;;;;5031374;28;20029;-67
2021/12/12 11:23:34;;;;;;;13.38;10.10;;;8.50;58.70;;;;;;5014334;28;20044;-63
2021/12/12 11:26:08;;;;;;;13.25;9.30;;;8.80;57.10;;;;;;5030717;28;20029;-66
2021/12/12 11:28:43;;;;;;;;;;;8.70;57.20;;;;;;5031052;28;20036;-64
2021/12/12 11:31:21;;;;;;;14.77;10.25;;;8.40;57.60;;;;;;5029994;28;19909;-65
2021/12/12 11:33:51;;;;;;;16.20;10.38;;;8.10;58.50;;;;;;5013681;28;20030;-66
2021/12/12 11:36:25;;;;;;;14.57;10.02;;;7.80;59.50;;;;;;5012777;28;20120;-64
2021/12/12 11:39:13;;;;;;;13.95;10.65;;;7.80;59.70;;;;;;5030446;28;20064;-61
2021/12/12 11:41:49;;;;;;;15.27;10.88;;;7.80;60.00;;;;;;5030800;28;20051;-63
2021/12/12 11:44:38;;;;;;;15.10;10.88;;;7.80;60.10;;;;;;5012234;28;20033;-61
2021/12/12 11:47:25;;;;;;;16.80;10.82;;;7.90;60.00;;;;;;5029375;28;20029;-58
2021/12/12 11:50:05;;;;;;;13.98;10.20;;;7.70;59.90;;;;;;5030120;28;20217;-60
2021/12/12 11:52:36;;;;;;;13.88;9.65;;;7.80;60.10;;;;;;5030596;28;20033;-64
2021/12/12 11:55:15;;;;;;;17.05;10.52;;;7.70;60.20;;;;;;5029311;28;20033;-66
2021/12/12 11:57:50;;;;;;;14.30;10.30;;;7.70;60.30;;;;;;5030181;28;20026;-60
2021/12/12 12:00:21;;;;;;;15.80;10.65;;;7.70;60.60;;;;;;5012124;28;20025;-62
2021/12/12 12:03:14;;;;;;;15.48;10.65;;;7.70;60.40;;;;;;5030249;28;20136;-63
2021/12/12 12:06:21;;;;;;;14.88;10.85;;;7.70;60.40;;;;;;5029839;28;20036;-69
2021/12/12 12:09:11;;;;;;;15.13;10.75;;;7.80;60.60;;;;;;5018207;28;20392;-63
2021/12/12 12:11:46;;;;;;;13.43;10.35;;;7.80;60.60;;;;;;5009755;28;20065;-61
2021/12/12 12:14:29;;;;;;;15.90;11.30;;;7.80;60.60;;;;;;4988259;28;1170966;-58
2021/12/12 12:17:06;;;;;;;15.68;11.35;;;7.90;60.70;;;;;;5029263;28;20038;-62
2021/12/12 12:20:00;;;;;;;21.08;12.63;;;7.90;60.50;;;;;;5012757;28;20119;-62
2021/12/12 12:22:57;;;;;;;16.80;11.70;;;7.80;60.40;;;;;;5030656;28;20036;-63
2021/12/12 12:28:56;;;;;;;14.73;10.05;;;7.70;60.40;;;;;;5009060;28;20037;-62
2021/12/12 12:31:45;;;;;;;17.23;11.90;;;7.60;60.40;;;;;;5019438;28;20124;-65
2021/12/12 12:34:48;;;;;;;14.63;10.73;;;7.70;60.50;;;;;;4992531;28;20042;-60
2021/12/12 12:37:42;;;;;;;15.38;11.15;;;7.60;60.60;;;;;;5011752;28;20380;-63
2021/12/12 12:40:45;;;;;;;17.95;11.40;;;7.50;60.60;;;;;;5012155;28;20037;-64
2021/12/12 12:43:48;;;;;;;15.27;11.10;;;7.50;60.80;;;;;;5029825;28;20045;-65
2021/12/12 12:46:43;;;;;;;14.45;10.52;;;7.50;61.20;;;;;;5029727;28;20538;-65
2021/12/12 12:49:46;;;;;;;16.45;10.80;;;7.30;61.20;;;;;;5029120;28;20113;-61
2021/12/12 12:52:36;;;;;;;15.43;10.85;;;7.40;61.40;;;;;;5010935;28;20097;-65
2021/12/12 12:55:33;;;;;;;15.77;11.25;;;7.40;61.50;;;;;;5012151;28;20022;-65
2021/12/12 12:58:38;;;;;;;16.20;10.75;;;7.40;61.20;;;;;;5011385;28;20385;-63
2021/12/12 13:01:20;;;;;;;18.63;11.10;;;7.30;61.60;;;;;;5012219;28;20033;-59
2021/12/12 13:04:15;;;;;;;14.43;10.85;;;7.50;61.70;;;;;;5030161;28;20500;-60
2021/12/12 13:07:13;;;;;;;17.38;11.13;;;7.50;61.30;;;;;;5030353;28;20029;-61
2021/12/12 13:10:04;;;;;;;12.90;9.77;;;7.50;61.30;;;;;;5013019;28;20025;-60
2021/12/12 13:12:45;;;;;;;14.32;9.95;;;7.30;61.10;;;;;;5030380;28;20561;-60
2021/12/12 13:15:42;;;;;;;20.17;12.15;;;7.30;61.30;;;;;;5029292;28;20030;-63
2021/12/12 13:18:29;;;;;;;15.43;11.02;;;7.30;61.70;;;;;;5012144;28;20101;-59
2021/12/12 13:21:06;;;;;;;14.13;10.30;;;7.30;61.80;;;;;;5029103;28;20040;-61
2021/12/12 13:23:41;;;;;;;15.05;10.30;;;7.30;61.60;;;;;;5015081;28;20381;-58
2021/12/12 13:26:14;;;;;;;15.93;10.75;;;7.30;61.40;;;;;;5032688;28;20033;-61
2021/12/12 13:29:03;;;;;;;13.50;9.53;;;7.20;61.30;;;;;;5034024;28;20029;-60
2021/12/12 13:31:39;;;;;;;13.93;9.73;;;7.20;61.60;;;;;;5015869;28;20025;-62
2021/12/12 13:34:20;;;;;;;18.63;10.70;;;7.10;61.60;;;;;;5032667;28;20022;-59
2021/12/12 13:37:16;;;;;;;15.07;9.98;;;7.10;61.80;;;;;;5015814;28;20067;-61
2021/12/12 13:40:23;;;;;;;16.23;9.75;;;7.00;61.90;;;;;;5033157;28;20032;-61
2021/12/12 13:42:55;;;;;;;13.43;9.02;;;6.90;62.10;;;;;;5015818;28;20060;-61